sensor_id;sensor_type;location;lat;lon;timestamp;P1;durP1;ratioP1;P2;durP2;ratioP2
30970;SDS011;17651;52.262;10.498;2023-04-08T00:00:17;12.35;;;7.72;;
30970;SDS011;17651;52.262;10.498;2023-04-08T00:02:28;13.63;;;8.00;;
30970;SDS011;17651;52.262;10.498;2023-04-08T00:04:39;11.05;;;7.30;;
30970;SDS011;17651;52.262;10.498;2023-04-08T00:06:50;11.25;;;8.00;;
30970;SDS011;17651;52.262;10.498;2023-04-08T00:09:01;10.38;;;7.45;;
30970;SDS011;17651;52.262;10.498;2023-04-08T00:11:12;13.55;;;8.13;;
30970;SDS011;17651;52.262;10.498;2023-04-08T00:13:23;12.30;;;8.32;;
30970;SDS011;17651;52.262;10.498;2023-04-08T00:15:35;11.32;;;7.70;;
30970;SDS011;17651;52.262;10.498;2023-04-08T00:17:46;9.30;;;6.88;;
30970;SDS011;17651;52.262;10.498;2023-04-08T00:19:58;11.68;;;7.90;;
30970;SDS011;17651;52.262;10.498;2023-04-08T00:22:09;12.23;;;7.93;;
30970;SDS011;17651;52.262;10.498;2023-04-08T00:24:20;12.50;;;8.07;;
30970;SDS011;17651;52.262;10.498;2023-04-08T00:26:31;10.65;;;8.18;;
30970;SDS011;17651;52.262;10.498;2023-04-08T00:28:42;13.45;;;9.27;;
30970;SDS011;17651;52.262;10.498;2023-04-08T00:30:54;12.65;;;8.35;;
30970;SDS011;17651;52.262;10.498;2023-04-08T00:33:05;12.63;;;8.20;;
30970;SDS011;17651;52.262;10.498;2023-04-08T00:35:17;10.95;;;7.95;;
30970;SDS011;17651;52.262;10.498;2023-04-08T00:37:29;11.07;;;7.68;;
30970;SDS011;17651;52.262;10.498;2023-04-08T00:39:41;8.88;;;6.90;;
30970;SDS011;17651;52.262;10.498;2023-04-08T00:41:52;11.90;;;8.23;;
30970;SDS011;17651;52.262;10.498;2023-04-08T00:44:03;9.35;;;7.30;;
30970;SDS011;17651;52.262;10.498;2023-04-08T00:46:15;11.10;;;7.47;;
30970;SDS011;17651;52.262;10.498;2023-04-08T00:48:26;10.27;;;7.78;;
30970;SDS011;17651;52.262;10.498;2023-04-08T00:50:37;11.35;;;6.95;;
30970;SDS011;17651;52.262;10.498;2023-04-08T00:52:48;11.57;;;8.15;;
30970;SDS011;17651;52.262;10.498;2023-04-08T00:54:59;10.40;;;7.30;;
30970;SDS011;17651;52.262;10.498;2023-04-08T00:57:10;9.85;;;6.57;;
30970;SDS011;17651;52.262;10.498;2023-04-08T00:59:21;9.90;;;7.03;;
30970;SDS011;17651;52.262;10.498;2023-04-08T01:03:57;11.25;;;7.75;;
30970;SDS011;17651;52.262;10.498;2023-04-08T01:06:17;10.35;;;7.28;;
30970;SDS011;17651;52.262;10.498;2023-04-08T01:08:31;12.05;;;7.45;;
30970;SDS011;17651;52.262;10.498;2023-04-08T01:10:43;9.13;;;6.63;;
30970;SDS011;17651;52.262;10.498;2023-04-08T01:12:56;10.27;;;7.05;;
30970;SDS011;17651;52.262;10.498;2023-04-08T01:15:08;8.38;;;6.50;;
30970;SDS011;17651;52.262;10.498;2023-04-08T01:17:21;10.75;;;7.00;;
30970;SDS011;17651;52.262;10.498;2023-04-08T01:19:33;8.32;;;6.82;;
30970;SDS011;17651;52.262;10.498;2023-04-08T01:21:45;7.78;;;6.03;;
30970;SDS011;17651;52.262;10.498;2023-04-08T01:23:58;11.32;;;6.80;;
30970;SDS011;17651;52.262;10.498;2023-04-08T01:26:11;8.82;;;6.45;;
30970;SDS011;17651;52.262;10.498;2023-04-08T01:28:24;8.38;;;6.55;;
30970;SDS011;17651;52.262;10.498;2023-04-08T01:30:37;11.18;;;7.30;;
30970;SDS011;17651;52.262;10.498;2023-04-08T01:32:49;10.55;;;6.18;;
30970;SDS011;17651;52.262;10.498;2023-04-08T01:35:01;12.95;;;6.95;;
30970;SDS011;17651;52.262;10.498;2023-04-08T01:37:12;8.70;;;6.68;;
30970;SDS011;17651;52.262;10.498;2023-04-08T01:39:24;11.20;;;6.80;;
30970;SDS011;17651;52.262;10.498;2023-04-08T01:41:36;9.43;;;6.82;;
30970;SDS011;17651;52.262;10.498;2023-04-08T01:43:48;11.02;;;7.65;;
30970;SDS011;17651;52.262;10.498;2023-04-08T01:46:00;9.55;;;7.28;;
30970;SDS011;17651;52.262;10.498;2023-04-08T01:48:12;10.55;;;7.00;;
30970;SDS011;17651;52.262;10.498;2023-04-08T01:50:23;11.20;;;6.90;;
30970;SDS011;17651;52.262;10.498;2023-04-08T01:52:36;10.73;;;6.85;;
30970;SDS011;17651;52.262;10.498;2023-04-08T01:54:48;9.55;;;7.13;;
30970;SDS011;17651;52.262;10.498;2023-04-08T01:56:59;9.80;;;7.63;;
30970;SDS011;17651;52.262;10.498;2023-04-08T01:59:12;11.07;;;7.32;;
30970;SDS011;17651;52.262;10.498;2023-04-08T02:01:24;10.85;;;7.63;;
30970;SDS011;17651;52.262;10.498;2023-04-08T02:03:37;10.90;;;7.38;;
30970;SDS011;17651;52.262;10.498;2023-04-08T02:05:48;12.18;;;8.43;;
30970;SDS011;17651;52.262;10.498;2023-04-08T02:07:59;11.57;;;7.68;;
30970;SDS011;17651;52.262;10.498;2023-04-08T02:10:11;11.35;;;8.05;;
30970;SDS011;17651;52.262;10.498;2023-04-08T02:12:22;13.85;;;8.15;;
30970;SDS011;17651;52.262;10.498;2023-04-08T02:14:33;11.30;;;7.95;;
30970;SDS011;17651;52.262;10.498;2023-04-08T02:16:49;13.60;;;8.38;;
30970;SDS011;17651;52.262;10.498;2023-04-08T02:19:07;12.98;;;8.68;;
30970;SDS011;17651;52.262;10.498;2023-04-08T02:21:20;11.48;;;7.45;;
30970;SDS011;17651;52.262;10.498;2023-04-08T02:23:32;10.38;;;7.88;;
30970;SDS011;17651;52.262;10.498;2023-04-08T02:25:45;14.05;;;9.00;;
30970;SDS011;17651;52.262;10.498;2023-04-08T02:27:57;12.98;;;8.65;;
30970;SDS011;17651;52.262;10.498;2023-04-08T02:30:09;9.82;;;7.32;;
30970;SDS011;17651;52.262;10.498;2023-04-08T02:32:21;11.82;;;8.35;;
30970;SDS011;17651;52.262;10.498;2023-04-08T02:34:33;11.23;;;7.65;;
30970;SDS011;17651;52.262;10.498;2023-04-08T02:36:45;12.13;;;8.73;;
30970;SDS011;17651;52.262;10.498;2023-04-08T02:38:57;10.82;;;7.43;;
30970;SDS011;17651;52.262;10.498;2023-04-08T02:41:08;10.85;;;8.02;;
30970;SDS011;17651;52.262;10.498;2023-04-08T02:43:19;14.32;;;8.77;;
30970;SDS011;17651;52.262;10.498;2023-04-08T02:45:31;13.77;;;8.18;;
30970;SDS011;17651;52.262;10.498;2023-04-08T02:47:42;12.10;;;7.97;;
30970;SDS011;17651;52.262;10.498;2023-04-08T02:49:54;13.02;;;9.18;;
30970;SDS011;17651;52.262;10.498;2023-04-08T02:52:05;11.05;;;8.30;;
30970;SDS011;17651;52.262;10.498;2023-04-08T02:54:16;11.98;;;8.30;;
30970;SDS011;17651;52.262;10.498;2023-04-08T02:56:28;13.55;;;8.40;;
30970;SDS011;17651;52.262;10.498;2023-04-08T02:58:39;12.05;;;7.88;;
30970;SDS011;17651;52.262;10.498;2023-04-08T03:00:50;12.23;;;8.23;;
30970;SDS011;17651;52.262;10.498;2023-04-08T03:03:01;13.88;;;8.48;;
30970;SDS011;17651;52.262;10.498;2023-04-08T03:05:12;14.25;;;8.73;;
30970;SDS011;17651;52.262;10.498;2023-04-08T03:07:25;13.30;;;8.38;;
30970;SDS011;17651;52.262;10.498;2023-04-08T03:09:36;13.88;;;8.50;;
30970;SDS011;17651;52.262;10.498;2023-04-08T03:11:47;13.18;;;9.13;;
30970;SDS011;17651;52.262;10.498;2023-04-08T03:14:02;12.77;;;8.05;;
30970;SDS011;17651;52.262;10.498;2023-04-08T03:16:13;13.55;;;8.82;;
30970;SDS011;17651;52.262;10.498;2023-04-08T03:18:24;14.07;;;8.98;;
30970;SDS011;17651;52.262;10.498;2023-04-08T03:20:35;14.30;;;8.75;;
30970;SDS011;17651;52.262;10.498;2023-04-08T03:22:46;14.27;;;9.15;;
30970;SDS011;17651;52.262;10.498;2023-04-08T03:24:57;13.30;;;8.73;;
30970;SDS011;17651;52.262;10.498;2023-04-08T03:27:09;15.80;;;9.35;;
30970;SDS011;17651;52.262;10.498;2023-04-08T03:29:21;12.45;;;8.35;;
30970;SDS011;17651;52.262;10.498;2023-04-08T03:31:32;14.38;;;9.07;;
30970;SDS011;17651;52.262;10.498;2023-04-08T03:33:43;13.27;;;9.00;;
30970;SDS011;17651;52.262;10.498;2023-04-08T03:35:54;17.17;;;9.82;;
30970;SDS011;17651;52.262;10.498;2023-04-08T03:38:05;17.88;;;10.52;;
30970;SDS011;17651;52.262;10.498;2023-04-08T03:40:16;17.05;;;9.55;;
30970;SDS011;17651;52.262;10.498;2023-04-08T03:42:27;15.70;;;9.43;;
30970;SDS011;17651;52.262;10.498;2023-04-08T03:44:39;13.07;;;9.40;;
30970;SDS011;17651;52.262;10.498;2023-04-08T03:46:50;15.60;;;9.82;;
30970;SDS011;17651;52.262;10.498;2023-04-08T03:49:01;14.75;;;9.63;;
30970;SDS011;17651;52.262;10.498;2023-04-08T03:51:12;19.92;;;10.57;;
30970;SDS011;17651;52.262;10.498;2023-04-08T03:53:23;18.60;;;11.05;;
30970;SDS011;17651;52.262;10.498;2023-04-08T03:55:37;16.08;;;10.07;;
30970;SDS011;17651;52.262;10.498;2023-04-08T03:57:48;13.45;;;9.25;;
30970;SDS011;17651;52.262;10.498;2023-04-08T03:59:59;15.88;;;9.75;;
30970;SDS011;17651;52.262;10.498;2023-04-08T04:02:10;14.45;;;9.95;;
30970;SDS011;17651;52.262;10.498;2023-04-08T04:04:22;19.45;;;10.40;;
30970;SDS011;17651;52.262;10.498;2023-04-08T04:06:33;16.25;;;9.73;;
30970;SDS011;17651;52.262;10.498;2023-04-08T04:08:44;16.90;;;9.65;;
30970;SDS011;17651;52.262;10.498;2023-04-08T04:10:57;18.92;;;10.27;;
30970;SDS011;17651;52.262;10.498;2023-04-08T04:13:08;17.02;;;10.50;;
30970;SDS011;17651;52.262;10.498;2023-04-08T04:15:19;14.80;;;10.18;;
30970;SDS011;17651;52.262;10.498;2023-04-08T04:17:30;14.55;;;9.73;;
30970;SDS011;17651;52.262;10.498;2023-04-08T04:19:41;17.92;;;10.20;;
30970;SDS011;17651;52.262;10.498;2023-04-08T04:21:52;17.35;;;10.40;;
30970;SDS011;17651;52.262;10.498;2023-04-08T04:24:03;17.45;;;10.23;;
30970;SDS011;17651;52.262;10.498;2023-04-08T04:26:15;17.75;;;10.02;;
30970;SDS011;17651;52.262;10.498;2023-04-08T04:28:26;18.45;;;9.25;;
30970;SDS011;17651;52.262;10.498;2023-04-08T04:30:37;16.95;;;10.73;;
30970;SDS011;17651;52.262;10.498;2023-04-08T04:32:48;15.73;;;10.05;;
30970;SDS011;17651;52.262;10.498;2023-04-08T04:34:59;18.52;;;11.95;;
30970;SDS011;17651;52.262;10.498;2023-04-08T04:37:11;18.40;;;11.10;;
30970;SDS011;17651;52.262;10.498;2023-04-08T04:39:22;19.23;;;11.38;;
30970;SDS011;17651;52.262;10.498;2023-04-08T04:41:33;19.08;;;10.30;;
30970;SDS011;17651;52.262;10.498;2023-04-08T04:43:49;20.05;;;11.48;;
30970;SDS011;17651;52.262;10.498;2023-04-08T04:46:00;17.88;;;11.25;;
30970;SDS011;17651;52.262;10.498;2023-04-08T04:48:15;22.15;;;11.55;;
30970;SDS011;17651;52.262;10.498;2023-04-08T04:50:27;19.38;;;10.63;;
30970;SDS011;17651;52.262;10.498;2023-04-08T04:52:38;17.55;;;10.00;;
30970;SDS011;17651;52.262;10.498;2023-04-08T04:54:50;18.83;;;11.05;;
30970;SDS011;17651;52.262;10.498;2023-04-08T04:57:01;19.45;;;10.90;;
30970;SDS011;17651;52.262;10.498;2023-04-08T04:59:12;17.10;;;10.98;;
30970;SDS011;17651;52.262;10.498;2023-04-08T05:01:23;18.88;;;11.68;;
30970;SDS011;17651;52.262;10.498;2023-04-08T05:03:34;18.38;;;11.48;;
30970;SDS011;17651;52.262;10.498;2023-04-08T05:05:49;17.33;;;10.60;;
30970;SDS011;17651;52.262;10.498;2023-04-08T05:08:00;17.17;;;10.48;;
30970;SDS011;17651;52.262;10.498;2023-04-08T05:10:11;19.25;;;11.75;;
30970;SDS011;17651;52.262;10.498;2023-04-08T05:12:22;21.15;;;12.05;;
30970;SDS011;17651;52.262;10.498;2023-04-08T05:14:34;21.25;;;12.82;;
30970;SDS011;17651;52.262;10.498;2023-04-08T05:16:45;18.25;;;11.80;;
30970;SDS011;17651;52.262;10.498;2023-04-08T05:18:56;17.25;;;10.82;;
30970;SDS011;17651;52.262;10.498;2023-04-08T05:21:07;18.23;;;11.80;;
30970;SDS011;17651;52.262;10.498;2023-04-08T05:23:18;23.85;;;12.88;;
30970;SDS011;17651;52.262;10.498;2023-04-08T05:25:29;22.08;;;12.52;;
30970;SDS011;17651;52.262;10.498;2023-04-08T05:27:40;20.85;;;11.52;;
30970;SDS011;17651;52.262;10.498;2023-04-08T05:29:51;22.63;;;12.68;;
30970;SDS011;17651;52.262;10.498;2023-04-08T05:32:03;19.77;;;12.07;;
30970;SDS011;17651;52.262;10.498;2023-04-08T05:34:14;20.20;;;10.82;;
30970;SDS011;17651;52.262;10.498;2023-04-08T05:36:28;24.17;;;13.25;;
30970;SDS011;17651;52.262;10.498;2023-04-08T05:38:40;18.13;;;10.65;;
30970;SDS011;17651;52.262;10.498;2023-04-08T05:40:53;21.92;;;11.48;;
30970;SDS011;17651;52.262;10.498;2023-04-08T05:43:04;20.65;;;11.75;;
30970;SDS011;17651;52.262;10.498;2023-04-08T05:45:15;23.52;;;12.10;;
30970;SDS011;17651;52.262;10.498;2023-04-08T05:47:26;22.77;;;12.70;;
30970;SDS011;17651;52.262;10.498;2023-04-08T05:49:37;25.23;;;13.18;;
30970;SDS011;17651;52.262;10.498;2023-04-08T05:51:48;21.35;;;12.70;;
30970;SDS011;17651;52.262;10.498;2023-04-08T05:54:00;24.45;;;13.95;;
30970;SDS011;17651;52.262;10.498;2023-04-08T05:56:11;21.10;;;12.35;;
30970;SDS011;17651;52.262;10.498;2023-04-08T05:58:22;20.85;;;12.98;;
30970;SDS011;17651;52.262;10.498;2023-04-08T06:00:33;25.92;;;13.65;;
30970;SDS011;17651;52.262;10.498;2023-04-08T06:02:44;25.98;;;14.13;;
30970;SDS011;17651;52.262;10.498;2023-04-08T06:04:55;25.95;;;12.57;;
30970;SDS011;17651;52.262;10.498;2023-04-08T06:07:06;23.92;;;12.57;;
30970;SDS011;17651;52.262;10.498;2023-04-08T06:09:18;23.25;;;12.32;;
30970;SDS011;17651;52.262;10.498;2023-04-08T06:11:29;23.08;;;12.60;;
30970;SDS011;17651;52.262;10.498;2023-04-08T06:13:40;23.90;;;12.57;;
30970;SDS011;17651;52.262;10.498;2023-04-08T06:15:51;22.55;;;12.75;;
30970;SDS011;17651;52.262;10.498;2023-04-08T06:18:03;23.27;;;12.90;;
30970;SDS011;17651;52.262;10.498;2023-04-08T06:20:14;24.48;;;13.93;;
30970;SDS011;17651;52.262;10.498;2023-04-08T06:22:25;25.25;;;13.80;;
30970;SDS011;17651;52.262;10.498;2023-04-08T06:24:36;23.60;;;12.98;;
30970;SDS011;17651;52.262;10.498;2023-04-08T06:26:47;25.05;;;14.10;;
30970;SDS011;17651;52.262;10.498;2023-04-08T06:28:59;27.33;;;13.13;;
30970;SDS011;17651;52.262;10.498;2023-04-08T06:31:10;22.10;;;12.85;;
30970;SDS011;17651;52.262;10.498;2023-04-08T06:33:22;23.38;;;13.40;;
30970;SDS011;17651;52.262;10.498;2023-04-08T06:35:33;22.52;;;12.57;;
30970;SDS011;17651;52.262;10.498;2023-04-08T06:37:46;23.83;;;13.25;;
30970;SDS011;17651;52.262;10.498;2023-04-08T06:39:57;27.20;;;15.07;;
30970;SDS011;17651;52.262;10.498;2023-04-08T06:42:08;26.50;;;14.40;;
30970;SDS011;17651;52.262;10.498;2023-04-08T06:44:29;28.17;;;15.27;;
30970;SDS011;17651;52.262;10.498;2023-04-08T06:46:40;31.23;;;15.50;;
30970;SDS011;17651;52.262;10.498;2023-04-08T06:48:51;30.13;;;14.45;;
30970;SDS011;17651;52.262;10.498;2023-04-08T06:51:03;31.08;;;15.77;;
30970;SDS011;17651;52.262;10.498;2023-04-08T06:53:14;29.98;;;16.15;;
30970;SDS011;17651;52.262;10.498;2023-04-08T06:55:25;28.63;;;14.88;;
30970;SDS011;17651;52.262;10.498;2023-04-08T06:57:36;30.25;;;15.55;;
30970;SDS011;17651;52.262;10.498;2023-04-08T06:59:47;30.77;;;14.63;;
30970;SDS011;17651;52.262;10.498;2023-04-08T07:01:59;32.35;;;15.35;;
30970;SDS011;17651;52.262;10.498;2023-04-08T07:04:10;30.10;;;15.18;;
30970;SDS011;17651;52.262;10.498;2023-04-08T07:06:21;33.70;;;15.65;;
30970;SDS011;17651;52.262;10.498;2023-04-08T07:08:32;28.08;;;14.77;;
30970;SDS011;17651;52.262;10.498;2023-04-08T07:10:43;30.15;;;15.18;;
30970;SDS011;17651;52.262;10.498;2023-04-08T07:12:54;27.52;;;14.80;;
30970;SDS011;17651;52.262;10.498;2023-04-08T07:15:06;33.90;;;16.08;;
30970;SDS011;17651;52.262;10.498;2023-04-08T07:17:17;33.88;;;17.50;;
30970;SDS011;17651;52.262;10.498;2023-04-08T07:19:28;28.58;;;15.55;;
30970;SDS011;17651;52.262;10.498;2023-04-08T07:21:40;33.88;;;16.08;;
30970;SDS011;17651;52.262;10.498;2023-04-08T07:23:51;31.08;;;16.70;;
30970;SDS011;17651;52.262;10.498;2023-04-08T07:26:02;25.52;;;14.90;;
30970;SDS011;17651;52.262;10.498;2023-04-08T07:28:16;22.95;;;13.30;;
30970;SDS011;17651;52.262;10.498;2023-04-08T07:30:27;21.77;;;13.75;;
30970;SDS011;17651;52.262;10.498;2023-04-08T07:32:39;31.77;;;14.52;;
30970;SDS011;17651;52.262;10.498;2023-04-08T07:34:50;32.08;;;15.02;;
30970;SDS011;17651;52.262;10.498;2023-04-08T07:37:01;27.95;;;15.73;;
30970;SDS011;17651;52.262;10.498;2023-04-08T07:39:12;28.80;;;15.05;;
30970;SDS011;17651;52.262;10.498;2023-04-08T07:41:23;30.13;;;16.33;;
30970;SDS011;17651;52.262;10.498;2023-04-08T07:43:34;25.02;;;15.85;;
30970;SDS011;17651;52.262;10.498;2023-04-08T07:45:48;31.45;;;16.05;;
30970;SDS011;17651;52.262;10.498;2023-04-08T07:48:00;35.63;;;17.10;;
30970;SDS011;17651;52.262;10.498;2023-04-08T07:50:11;26.33;;;14.30;;
30970;SDS011;17651;52.262;10.498;2023-04-08T07:52:22;29.38;;;14.20;;
30970;SDS011;17651;52.262;10.498;2023-04-08T07:54:34;31.50;;;15.02;;
30970;SDS011;17651;52.262;10.498;2023-04-08T07:56:45;24.55;;;13.63;;
30970;SDS011;17651;52.262;10.498;2023-04-08T07:58:56;26.10;;;13.85;;
30970;SDS011;17651;52.262;10.498;2023-04-08T08:01:20;26.70;;;13.98;;
30970;SDS011;17651;52.262;10.498;2023-04-08T08:03:32;29.30;;;15.30;;
30970;SDS011;17651;52.262;10.498;2023-04-08T08:05:43;26.48;;;14.82;;
30970;SDS011;17651;52.262;10.498;2023-04-08T08:07:54;28.38;;;14.00;;
30970;SDS011;17651;52.262;10.498;2023-04-08T08:10:06;26.95;;;13.63;;
30970;SDS011;17651;52.262;10.498;2023-04-08T08:12:17;27.60;;;13.57;;
30970;SDS011;17651;52.262;10.498;2023-04-08T08:14:28;26.75;;;14.15;;
30970;SDS011;17651;52.262;10.498;2023-04-08T08:16:39;34.47;;;16.63;;
30970;SDS011;17651;52.262;10.498;2023-04-08T08:18:50;34.08;;;16.85;;
30970;SDS011;17651;52.262;10.498;2023-04-08T08:21:02;29.85;;;16.08;;
30970;SDS011;17651;52.262;10.498;2023-04-08T08:23:13;31.48;;;15.50;;
30970;SDS011;17651;52.262;10.498;2023-04-08T08:25:24;33.42;;;15.52;;
30970;SDS011;17651;52.262;10.498;2023-04-08T08:27:35;31.02;;;16.02;;
30970;SDS011;17651;52.262;10.498;2023-04-08T08:29:46;32.97;;;15.60;;
30970;SDS011;17651;52.262;10.498;2023-04-08T08:31:58;26.42;;;13.68;;
30970;SDS011;17651;52.262;10.498;2023-04-08T08:34:09;30.40;;;16.85;;
30970;SDS011;17651;52.262;10.498;2023-04-08T08:36:20;31.40;;;15.18;;
30970;SDS011;17651;52.262;10.498;2023-04-08T08:38:31;26.40;;;14.63;;
30970;SDS011;17651;52.262;10.498;2023-04-08T08:40:43;28.92;;;15.82;;
30970;SDS011;17651;52.262;10.498;2023-04-08T08:42:54;36.10;;;16.30;;
30970;SDS011;17651;52.262;10.498;2023-04-08T08:45:08;33.60;;;18.70;;
30970;SDS011;17651;52.262;10.498;2023-04-08T08:47:19;31.48;;;16.67;;
30970;SDS011;17651;52.262;10.498;2023-04-08T08:49:30;32.05;;;17.38;;
30970;SDS011;17651;52.262;10.498;2023-04-08T08:51:41;33.13;;;17.08;;
30970;SDS011;17651;52.262;10.498;2023-04-08T08:53:55;27.90;;;15.23;;
30970;SDS011;17651;52.262;10.498;2023-04-08T08:56:07;32.65;;;16.92;;
30970;SDS011;17651;52.262;10.498;2023-04-08T08:58:18;31.98;;;17.00;;
30970;SDS011;17651;52.262;10.498;2023-04-08T09:00:33;27.08;;;14.27;;
30970;SDS011;17651;52.262;10.498;2023-04-08T09:02:44;29.75;;;17.35;;
30970;SDS011;17651;52.262;10.498;2023-04-08T09:05:02;32.88;;;17.70;;
30970;SDS011;17651;52.262;10.498;2023-04-08T09:07:13;29.35;;;16.13;;
30970;SDS011;17651;52.262;10.498;2023-04-08T09:09:24;31.70;;;17.13;;
30970;SDS011;17651;52.262;10.498;2023-04-08T09:11:39;32.13;;;16.40;;
30970;SDS011;17651;52.262;10.498;2023-04-08T09:13:51;29.92;;;16.92;;
30970;SDS011;17651;52.262;10.498;2023-04-08T09:16:03;29.60;;;15.73;;
30970;SDS011;17651;52.262;10.498;2023-04-08T09:18:20;25.77;;;14.68;;
30970;SDS011;17651;52.262;10.498;2023-04-08T09:20:32;26.67;;;14.07;;
30970;SDS011;17651;52.262;10.498;2023-04-08T09:25:19;26.08;;;14.23;;
30970;SDS011;17651;52.262;10.498;2023-04-08T09:27:32;23.05;;;13.55;;
30970;SDS011;17651;52.262;10.498;2023-04-08T09:29:44;29.52;;;13.55;;
30970;SDS011;17651;52.262;10.498;2023-04-08T09:31:56;31.73;;;14.98;;
30970;SDS011;17651;52.262;10.498;2023-04-08T09:34:11;28.85;;;16.35;;
30970;SDS011;17651;52.262;10.498;2023-04-08T09:36:23;32.10;;;17.63;;
30970;SDS011;17651;52.262;10.498;2023-04-08T09:38:35;35.75;;;17.98;;
30970;SDS011;17651;52.262;10.498;2023-04-08T09:40:46;37.25;;;18.15;;
30970;SDS011;17651;52.262;10.498;2023-04-08T09:42:57;42.08;;;22.27;;
30970;SDS011;17651;52.262;10.498;2023-04-08T09:45:11;37.25;;;20.02;;
30970;SDS011;17651;52.262;10.498;2023-04-08T09:47:23;42.45;;;22.25;;
30970;SDS011;17651;52.262;10.498;2023-04-08T09:49:45;53.15;;;24.75;;
30970;SDS011;17651;52.262;10.498;2023-04-08T09:52:06;50.92;;;26.63;;
30970;SDS011;17651;52.262;10.498;2023-04-08T09:54:19;57.88;;;30.40;;
30970;SDS011;17651;52.262;10.498;2023-04-08T09:56:38;65.43;;;32.25;;
30970;SDS011;17651;52.262;10.498;2023-04-08T09:58:51;71.17;;;34.13;;
30970;SDS011;17651;52.262;10.498;2023-04-08T10:01:04;62.47;;;33.30;;
30970;SDS011;17651;52.262;10.498;2023-04-08T10:03:28;68.60;;;34.05;;
30970;SDS011;17651;52.262;10.498;2023-04-08T10:05:40;74.35;;;34.72;;
30970;SDS011;17651;52.262;10.498;2023-04-08T10:07:52;77.95;;;37.03;;
30970;SDS011;17651;52.262;10.498;2023-04-08T10:10:03;76.63;;;34.10;;
30970;SDS011;17651;52.262;10.498;2023-04-08T10:12:14;83.13;;;38.03;;
30970;SDS011;17651;52.262;10.498;2023-04-08T10:14:25;86.75;;;41.85;;
30970;SDS011;17651;52.262;10.498;2023-04-08T10:16:37;69.80;;;34.67;;
30970;SDS011;17651;52.262;10.498;2023-04-08T10:18:49;68.18;;;32.17;;
30970;SDS011;17651;52.262;10.498;2023-04-08T10:21:04;71.10;;;33.80;;
30970;SDS011;17651;52.262;10.498;2023-04-08T10:23:51;63.55;;;31.75;;
30970;SDS011;17651;52.262;10.498;2023-04-08T10:26:02;69.63;;;32.70;;
30970;SDS011;17651;52.262;10.498;2023-04-08T10:28:33;69.18;;;33.50;;
30970;SDS011;17651;52.262;10.498;2023-04-08T10:30:48;67.35;;;33.38;;
30970;SDS011;17651;52.262;10.498;2023-04-08T10:32:59;166.18;;;79.03;;
30970;SDS011;17651;52.262;10.498;2023-04-08T10:35:10;74.03;;;36.83;;
30970;SDS011;17651;52.262;10.498;2023-04-08T10:37:21;68.05;;;32.85;;
30970;SDS011;17651;52.262;10.498;2023-04-08T10:39:32;68.57;;;31.73;;
30970;SDS011;17651;52.262;10.498;2023-04-08T10:41:47;61.25;;;30.52;;
30970;SDS011;17651;52.262;10.498;2023-04-08T10:43:58;65.43;;;31.70;;
30970;SDS011;17651;52.262;10.498;2023-04-08T10:46:12;63.47;;;31.25;;
30970;SDS011;17651;52.262;10.498;2023-04-08T10:48:24;61.95;;;30.35;;
30970;SDS011;17651;52.262;10.498;2023-04-08T10:50:35;61.95;;;30.60;;
30970;SDS011;17651;52.262;10.498;2023-04-08T10:54:57;67.10;;;33.60;;
30970;SDS011;17651;52.262;10.498;2023-04-08T10:57:08;65.43;;;31.88;;
30970;SDS011;17651;52.262;10.498;2023-04-08T10:59:26;61.00;;;31.40;;
30970;SDS011;17651;52.262;10.498;2023-04-08T11:01:38;57.40;;;30.92;;
30970;SDS011;17651;52.262;10.498;2023-04-08T11:03:50;53.83;;;29.05;;
30970;SDS011;17651;52.262;10.498;2023-04-08T11:06:01;48.47;;;27.13;;
30970;SDS011;17651;52.262;10.498;2023-04-08T11:08:12;55.25;;;27.65;;
30970;SDS011;17651;52.262;10.498;2023-04-08T11:10:24;53.03;;;27.23;;
30970;SDS011;17651;52.262;10.498;2023-04-08T11:12:36;42.65;;;24.35;;
30970;SDS011;17651;52.262;10.498;2023-04-08T11:14:47;45.75;;;24.10;;
30970;SDS011;17651;52.262;10.498;2023-04-08T11:17:00;46.10;;;22.33;;
30970;SDS011;17651;52.262;10.498;2023-04-08T11:19:12;46.53;;;23.52;;
30970;SDS011;17651;52.262;10.498;2023-04-08T11:21:23;37.13;;;20.45;;
30970;SDS011;17651;52.262;10.498;2023-04-08T11:23:38;33.42;;;18.90;;
30970;SDS011;17651;52.262;10.498;2023-04-08T11:25:49;37.35;;;19.08;;
30970;SDS011;17651;52.262;10.498;2023-04-08T11:28:00;32.60;;;15.75;;
30970;SDS011;17651;52.262;10.498;2023-04-08T11:30:12;31.83;;;16.08;;
30970;SDS011;17651;52.262;10.498;2023-04-08T11:32:23;30.88;;;16.42;;
30970;SDS011;17651;52.262;10.498;2023-04-08T11:34:37;30.75;;;16.17;;
30970;SDS011;17651;52.262;10.498;2023-04-08T11:36:49;30.67;;;14.55;;
30970;SDS011;17651;52.262;10.498;2023-04-08T11:39:05;28.83;;;15.30;;
30970;SDS011;17651;52.262;10.498;2023-04-08T11:41:16;27.67;;;15.18;;
30970;SDS011;17651;52.262;10.498;2023-04-08T11:43:28;30.02;;;15.45;;
30970;SDS011;17651;52.262;10.498;2023-04-08T11:45:40;30.52;;;15.93;;
30970;SDS011;17651;52.262;10.498;2023-04-08T11:47:51;25.80;;;14.30;;
30970;SDS011;17651;52.262;10.498;2023-04-08T11:50:03;25.60;;;14.70;;
30970;SDS011;17651;52.262;10.498;2023-04-08T11:52:21;33.20;;;16.33;;
30970;SDS011;17651;52.262;10.498;2023-04-08T11:54:32;31.70;;;17.25;;
30970;SDS011;17651;52.262;10.498;2023-04-08T11:56:43;30.02;;;15.43;;
30970;SDS011;17651;52.262;10.498;2023-04-08T11:58:56;29.25;;;15.45;;
30970;SDS011;17651;52.262;10.498;2023-04-08T12:01:07;28.02;;;14.98;;
30970;SDS011;17651;52.262;10.498;2023-04-08T12:03:18;31.05;;;16.00;;
30970;SDS011;17651;52.262;10.498;2023-04-08T12:05:29;30.92;;;16.15;;
30970;SDS011;17651;52.262;10.498;2023-04-08T12:07:43;33.05;;;16.80;;
30970;SDS011;17651;52.262;10.498;2023-04-08T12:09:54;33.78;;;16.13;;
30970;SDS011;17651;52.262;10.498;2023-04-08T12:12:05;32.50;;;16.63;;
30970;SDS011;17651;52.262;10.498;2023-04-08T12:14:16;35.38;;;17.48;;
30970;SDS011;17651;52.262;10.498;2023-04-08T12:16:27;30.38;;;16.23;;
30970;SDS011;17651;52.262;10.498;2023-04-08T12:18:39;33.63;;;16.95;;
30970;SDS011;17651;52.262;10.498;2023-04-08T12:20:50;33.50;;;17.52;;
30970;SDS011;17651;52.262;10.498;2023-04-08T12:23:01;36.08;;;17.75;;
30970;SDS011;17651;52.262;10.498;2023-04-08T12:25:12;34.55;;;15.43;;
30970;SDS011;17651;52.262;10.498;2023-04-08T12:27:23;49.42;;;20.40;;
30970;SDS011;17651;52.262;10.498;2023-04-08T12:29:34;31.77;;;17.05;;
30970;SDS011;17651;52.262;10.498;2023-04-08T12:31:45;107.20;;;55.00;;
30970;SDS011;17651;52.262;10.498;2023-04-08T12:33:56;37.58;;;18.90;;
30970;SDS011;17651;52.262;10.498;2023-04-08T12:36:07;30.77;;;16.70;;
30970;SDS011;17651;52.262;10.498;2023-04-08T12:38:18;31.92;;;17.50;;
30970;SDS011;17651;52.262;10.498;2023-04-08T12:40:30;33.78;;;17.55;;
30970;SDS011;17651;52.262;10.498;2023-04-08T12:42:41;33.42;;;17.23;;
30970;SDS011;17651;52.262;10.498;2023-04-08T12:44:52;33.28;;;16.48;;
30970;SDS011;17651;52.262;10.498;2023-04-08T12:47:03;30.05;;;16.65;;
30970;SDS011;17651;52.262;10.498;2023-04-08T12:49:15;27.38;;;15.30;;
30970;SDS011;17651;52.262;10.498;2023-04-08T12:51:26;30.38;;;16.52;;